Terminal Aerodrome Forecast
Issued by NWS Omaha/Valley, NE

Home | Current Version | Previous Version | Graphics & Text | Print | Product List | Glossary On
Versions: 1 2 3 4 5 6 7 8 9 10 11 12 13 14 15
067
FTUS43 KOAX 191506 AAA
TAFOFK
TAF AMD
KOFK 191506Z 1915/2012 02008KT P6SM OVC018
     FM191800 03009KT P6SM SCT020 BKN100
     FM192000 05007KT P6SM OVC070
     FM200000 04007KT P6SM OVC050 PROB30 2000/2005 4SM -RA OVC025
     FM200500 02005KT 4SM -RA OVC015=

USA.gov is the U.S. government's official web portal to all federal, state and local government web resources and services.